Time;durP1;ratioP1;P1;durP2;ratioP2;P2;SDS_P1;SDS_P2;PMS_P1;PMS_P2;Temp;Humidity;BMP_temperature;BMP_pressure;BME280_temperature;BME280_humidity;BME280_pressure;Samples;Min_cycle;Max_cycle;Signal;HPM_P1;HPM_P2
2021/11/06 00:00:52;;;;;;;;;;;8.80;99.90;;;;;;5075777;28;19931;-73
2021/11/06 00:03:19;;;;;;;;;;;8.80;99.90;;;;;;5075803;28;19924;-73
2021/11/06 00:05:46;;;;;;;;;;;8.80;99.90;;;;;;5075547;28;19928;-74
2021/11/06 00:08:13;;;;;;;;;;;8.80;99.90;;;;;;5075491;28;20351;-73
2021/11/06 00:10:41;;;;;;;;;;;8.80;99.90;;;;;;5075723;28;19924;-73
2021/11/06 00:13:08;;;;;;;;;;;8.80;99.90;;;;;;5075492;28;20377;-73
2021/11/06 00:15:35;;;;;;;;;;;8.80;99.90;;;;;;5075588;28;19928;-73
2021/11/06 00:18:02;;;;;;;;;;;8.80;99.90;;;;;;5075552;28;19925;-73
2021/11/06 00:20:29;;;;;;;;;;;8.80;99.90;;;;;;5075402;28;19935;-73
2021/11/06 00:22:56;;;;;;;;;;;8.80;99.90;;;;;;5075625;28;19932;-73
2021/11/06 00:25:23;;;;;;;;;;;8.80;99.90;;;;;;5075697;28;19931;-73
2021/11/06 00:27:52;;;;;;;;;;;8.70;99.90;;;;;;5075336;28;19936;-73
2021/11/06 00:30:19;;;;;;;;;;;8.80;99.90;;;;;;5075592;28;19928;-73
2021/11/06 00:32:46;;;;;;;;;;;8.70;99.90;;;;;;5075283;28;19924;-73
2021/11/06 00:35:13;;;;;;;;;;;8.70;99.90;;;;;;5074914;28;19924;-74
2021/11/06 00:37:40;;;;;;;;;;;8.80;99.90;;;;;;5075479;28;19935;-73
2021/11/06 00:40:07;;;;;;;;;;;8.80;99.90;;;;;;5075411;28;19932;-73
2021/11/06 00:42:34;;;;;;;;;;;8.80;99.90;;;;;;5075364;28;19924;-73
2021/11/06 00:45:02;;;;;;;;;;;8.80;99.90;;;;;;5075340;28;20276;-74
2021/11/06 00:47:29;;;;;;;;;;;8.80;99.90;;;;;;5070424;28;19932;-74
2021/11/06 00:49:58;;;;;;;;;;;8.80;99.90;;;;;;5074734;28;20284;-73
2021/11/06 00:52:26;;;;;;;;;;;8.80;99.90;;;;;;5074977;28;20005;-73
2021/11/06 00:54:56;;;;;;;;;;;8.80;99.90;;;;;;5074885;28;19928;-73
2021/11/06 00:57:25;;;;;;;;;;;8.80;99.90;;;;;;5075079;28;19951;-74
2021/11/06 00:59:53;;;;;;;;;;;8.80;99.90;;;;;;5074758;28;19925;-74
2021/11/06 01:02:22;;;;;;;;;;;8.80;99.90;;;;;;5074840;28;20348;-73
2021/11/06 01:04:53;;;;;;;;;;;8.80;99.90;;;;;;5075050;28;20332;-73
2021/11/06 01:07:23;;;;;;;;;;;8.80;99.90;;;;;;5078273;28;19993;-74
2021/11/06 01:09:54;;;;;;;;;;;8.80;99.90;;;;;;5077014;28;20032;-75
2021/11/06 01:12:24;;;;;;;;;;;8.80;99.90;;;;;;5074890;28;19935;-74
2021/11/06 01:15:00;;;;;;;;;;;8.80;99.90;;;;;;5075680;28;19932;-74
2021/11/06 01:17:29;;;;;;;;;;;8.80;99.90;;;;;;5137145;22;19924;-75
2021/11/06 01:19:56;;;;;;;;;;;8.80;99.90;;;;;;5118734;27;19930;-72
2021/11/06 01:22:22;;;;;;;;;;;8.80;99.90;;;;;;5119291;28;20244;-74
2021/11/06 01:24:49;;;;;;;;;;;8.80;99.90;;;;;;5119473;28;19924;-74
2021/11/06 01:27:16;;;;;;;;;;;8.80;99.90;;;;;;5116811;28;19942;-74
2021/11/06 01:29:43;;;;;;;;;;;8.80;99.90;;;;;;5116264;28;19923;-74
2021/11/06 01:32:10;;;;;;;;;;;8.80;99.90;;;;;;5118425;28;19967;-74
2021/11/06 01:34:39;;;;;;;;;;;8.80;99.90;;;;;;5116714;28;19924;-73
2021/11/06 01:37:06;;;;;;;;;;;8.80;99.90;;;;;;5119067;28;19924;-74
2021/11/06 01:39:32;;;;;;;;;;;8.80;99.90;;;;;;5119299;28;19924;-74
2021/11/06 01:41:59;;;;;;;;;;;8.80;99.90;;;;;;5119088;28;19928;-74
2021/11/06 01:44:27;;;;;;;;;;;8.80;99.90;;;;;;5119407;28;19930;-73
2021/11/06 01:46:54;;;;;;;;;;;8.80;99.90;;;;;;5119259;28;19950;-74
2021/11/06 01:49:21;;;;;;;;;;;8.80;99.90;;;;;;5119523;27;20332;-74
2021/11/06 01:51:49;;;;;;;;;;;8.80;99.90;;;;;;5119103;28;20244;-73
2021/11/06 01:54:16;;;;;;;;;;;8.80;99.90;;;;;;5118924;28;20263;-74
2021/11/06 01:56:43;;;;;;;;;;;8.80;99.90;;;;;;5118791;28;19924;-74
2021/11/06 01:59:10;;;;;;;;;;;8.80;99.90;;;;;;5119094;28;20313;-73
2021/11/06 02:01:37;;;;;;;;;;;8.80;99.90;;;;;;5118973;28;19924;-74
2021/11/06 02:04:04;;;;;;;;;;;8.70;99.90;;;;;;5118185;28;19977;-74
2021/11/06 02:06:31;;;;;;;;;;;8.70;99.90;;;;;;5118783;28;19970;-74
2021/11/06 02:08:59;;;;;;;;;;;8.70;99.90;;;;;;5118560;28;19973;-74
2021/11/06 02:11:26;;;;;;;;;;;8.80;99.90;;;;;;5118622;28;19934;-73
2021/11/06 02:13:53;;;;;;;;;;;8.80;99.90;;;;;;5118515;28;19924;-73
2021/11/06 02:16:20;;;;;;;;;;;8.80;99.90;;;;;;5112951;28;19924;-73
2021/11/06 02:18:47;;;;;;;;;;;8.80;99.90;;;;;;5097766;28;19925;-73
2021/11/06 02:21:15;;;;;;;;;;;8.80;99.90;;;;;;5097872;28;19930;-74
2021/11/06 02:23:43;;;;;;;;;;;8.70;99.90;;;;;;5097820;28;20376;-73
2021/11/06 02:26:10;;;;;;;;;;;8.70;99.90;;;;;;5097749;28;20372;-73
2021/11/06 02:28:37;;;;;;;;;;;8.70;99.90;;;;;;5097621;28;19934;-74
2021/11/06 02:31:04;;;;;;;;;;;8.60;99.90;;;;;;5097956;28;19923;-74
2021/11/06 02:33:30;;;;;;;;;;;8.70;99.90;;;;;;5097801;28;19924;-74
2021/11/06 02:35:58;;;;;;;;;;;8.70;99.90;;;;;;5097777;28;19924;-73
2021/11/06 02:38:27;;;;;;;;;;;8.70;99.90;;;;;;5097539;28;19924;-74
2021/11/06 02:40:53;;;;;;;;;;;8.70;99.90;;;;;;5097472;28;20336;-74
2021/11/06 02:43:23;;;;;;;;;;;8.70;99.90;;;;;;5119902;22;19963;-86
2021/11/06 02:45:49;;;;;;;;;;;8.70;99.90;;;;;;5084110;28;19963;-76
2021/11/06 02:48:16;;;;;;;;;;;8.70;99.90;;;;;;5076850;28;19925;-74
2021/11/06 02:50:43;;;;;;;;;;;8.70;99.90;;;;;;5077261;28;19931;-74
2021/11/06 02:53:10;;;;;;;;;;;8.70;99.90;;;;;;5077218;28;20003;-75
2021/11/06 02:55:38;;;;;;;;;;;8.70;99.90;;;;;;5077069;28;19924;-75
2021/11/06 02:58:05;;;;;;;;;;;8.70;99.90;;;;;;5077164;28;19935;-74
2021/11/06 03:00:32;;;;;;;;;;;8.70;99.90;;;;;;5077168;28;19924;-74
2021/11/06 03:02:59;;;;;;;;;;;8.70;99.90;;;;;;5077179;28;19924;-74
2021/11/06 03:05:26;;;;;;;;;;;8.70;99.90;;;;;;5076869;28;19924;-74
2021/11/06 03:07:53;;;;;;;;;;;8.70;99.90;;;;;;5077030;28;19924;-74
2021/11/06 03:10:20;;;;;;;;;;;8.70;99.90;;;;;;5077084;28;20247;-74
2021/11/06 03:12:48;;;;;;;;;;;8.70;99.90;;;;;;5076880;28;20251;-74
2021/11/06 03:15:15;;;;;;;;;;;8.80;99.90;;;;;;5076670;28;20360;-74
2021/11/06 03:17:42;;;;;;;;;;;8.70;99.90;;;;;;5076676;28;19972;-74
2021/11/06 03:20:10;;;;;;;;;;;8.80;99.90;;;;;;5076462;28;19931;-74
2021/11/06 03:22:37;;;;;;;;;;;8.70;99.90;;;;;;5076524;28;20267;-74
2021/11/06 03:25:05;;;;;;;;;;;8.70;99.90;;;;;;5076787;28;20026;-74
2021/11/06 03:27:32;;;;;;;;;;;8.80;99.90;;;;;;5076520;28;20263;-74
2021/11/06 03:30:00;;;;;;;;;;;8.80;99.90;;;;;;5076259;28;19924;-74
2021/11/06 03:32:27;;;;;;;;;;;8.80;99.90;;;;;;5076449;28;19924;-74
2021/11/06 03:34:54;;;;;;;;;;;8.80;99.90;;;;;;5076243;28;20303;-74
2021/11/06 03:37:20;;;;;;;;;;;8.80;99.90;;;;;;5061933;28;19950;-75
2021/11/06 03:39:47;;;;;;;;;;;8.80;99.90;;;;;;5061223;28;20051;-75
2021/11/06 03:42:14;;;;;;;;;;;8.80;99.90;;;;;;5072359;28;20354;-75
2021/11/06 03:44:42;;;;;;;;;;;8.80;99.90;;;;;;5065780;28;19925;-75
2021/11/06 03:47:10;;;;;;;;;;;8.80;99.90;;;;;;5065228;28;19935;-75
2021/11/06 03:49:37;;;;;;;;;;;8.80;99.90;;;;;;5057236;28;20349;-75
2021/11/06 03:52:04;;;;;;;;;;;8.80;99.90;;;;;;5059003;28;19925;-75
2021/11/06 03:54:31;;;;;;;;;;;8.80;99.90;;;;;;5070322;28;19925;-74
2021/11/06 03:56:58;;;;;;;;;;;8.80;99.90;;;;;;5056282;28;19925;-75
2021/11/06 03:59:25;;;;;;;;;;;8.80;99.90;;;;;;5055826;28;19928;-75
2021/11/06 04:01:51;;;;;;;;;;;8.80;99.90;;;;;;5055873;28;19924;-75
2021/11/06 04:04:20;;;;;;;;;;;8.80;99.90;;;;;;5055637;28;19925;-75
2021/11/06 04:06:46;;;;;;;;;;;8.80;99.90;;;;;;5036125;28;19935;-75
2021/11/06 04:09:13;;;;;;;;;;;8.90;99.90;;;;;;5048094;28;20380;-75
2021/11/06 04:11:40;;;;;;;;;;;8.90;99.90;;;;;;5055604;28;19932;-74
2021/11/06 04:14:07;;;;;;;;;;;8.80;99.90;;;;;;5055596;28;20371;-74
2021/11/06 04:16:34;;;;;;;;;;;8.80;99.90;;;;;;5055660;28;19935;-74
2021/11/06 04:19:04;;;;;;;;;;;8.90;99.90;;;;;;5055498;28;19948;-75
2021/11/06 04:21:32;;;;;;;;;;;8.80;99.90;;;;;;5055951;28;19979;-75
2021/11/06 04:23:59;;;;;;;;;;;8.80;99.90;;;;;;5055462;28;20342;-75
2021/11/06 04:26:26;;;;;;;;;;;8.90;99.90;;;;;;5055356;28;19931;-74
2021/11/06 04:28:53;;;;;;;;;;;8.80;99.90;;;;;;5055080;28;20365;-75
2021/11/06 04:31:20;;;;;;;;;;;8.80;99.90;;;;;;5055198;28;20015;-74
2021/11/06 04:33:47;;;;;;;;;;;8.80;99.90;;;;;;5055248;28;19924;-74
2021/11/06 04:36:13;;;;;;;;;;;8.80;99.90;;;;;;5039831;28;19937;-74
2021/11/06 04:38:42;;;;;;;;;;;8.90;99.90;;;;;;5035386;28;19925;-74
2021/11/06 04:41:08;;;;;;;;;;;8.80;99.90;;;;;;5035160;28;19932;-74
2021/11/06 04:43:37;;;;;;;;;;;8.80;99.90;;;;;;5048039;28;19940;-75
2021/11/06 04:46:04;;;;;;;;;;;8.90;99.90;;;;;;5055102;28;19937;-75
2021/11/06 04:48:31;;;;;;;;;;;10.40;99.90;;;;;;5053582;28;19999;-74
2021/11/06 04:50:58;;;;;;;;;;;8.80;99.90;;;;;;5034399;28;19925;-74
2021/11/06 04:53:25;;;;;;;;;;;8.80;99.90;;;;;;5034839;28;20379;-74
2021/11/06 04:55:53;;;;;;;;;;;8.90;99.90;;;;;;5034984;28;19935;-74
2021/11/06 04:58:20;;;;;;;;;;;8.80;99.90;;;;;;5034999;28;19925;-74
2021/11/06 05:00:47;;;;;;;;;;;8.90;99.90;;;;;;5034909;28;19936;-75
2021/11/06 05:03:14;;;;;;;;;;;8.90;99.90;;;;;;5035128;28;19939;-74
2021/11/06 05:05:42;;;;;;;;;;;8.90;99.90;;;;;;5045820;28;19991;-74
2021/11/06 05:08:08;;;;;;;;;;;8.90;99.90;;;;;;5055009;28;19925;-74
2021/11/06 05:10:35;;;;;;;;;;;8.90;99.90;;;;;;5055073;28;19929;-74
2021/11/06 05:13:04;;;;;;;;;;;8.90;99.90;;;;;;5055139;28;20359;-74
2021/11/06 05:15:30;;;;;;;;;;;8.90;99.90;;;;;;5055144;28;20242;-75
2021/11/06 05:17:57;;;;;;;;;;;8.90;99.90;;;;;;5054787;28;20357;-74
2021/11/06 05:20:24;;;;;;;;;;;8.90;99.90;;;;;;5070825;28;19932;-74
2021/11/06 05:22:51;;;;;;;;;;;8.90;99.90;;;;;;5074675;28;19924;-74
2021/11/06 05:25:18;;;;;;;;;;;8.90;99.90;;;;;;5074696;28;20357;-74
2021/11/06 05:27:45;;;;;;;;;;;8.90;99.90;;;;;;5074618;28;19924;-74
2021/11/06 05:30:13;;;;;;;;;;;8.90;99.90;;;;;;5074580;28;20400;-74
2021/11/06 05:32:40;;;;;;;;;;;8.90;99.90;;;;;;5074539;28;20363;-74
2021/11/06 05:35:08;;;;;;;;;;;8.90;99.90;;;;;;5068182;28;19936;-74
2021/11/06 05:37:34;;;;;;;;;;;8.90;99.90;;;;;;5054859;28;20280;-74
2021/11/06 05:40:01;;;;;;;;;;;8.90;99.90;;;;;;5054676;28;20368;-74
2021/11/06 05:42:28;;;;;;;;;;;8.90;99.90;;;;;;5054391;28;19925;-74
2021/11/06 05:44:55;;;;;;;;;;;8.90;99.90;;;;;;5054632;28;20320;-74
2021/11/06 05:47:23;;;;;;;;;;;8.80;99.90;;;;;;5054424;28;19925;-74
2021/11/06 05:49:50;;;;;;;;;;;8.90;99.90;;;;;;5064593;28;19935;-74
2021/11/06 05:52:17;;;;;;;;;;;8.90;99.90;;;;;;5074641;28;19972;-74
2021/11/06 05:54:44;;;;;;;;;;;8.90;99.90;;;;;;5074530;28;19928;-74
2021/11/06 05:57:11;;;;;;;;;;;8.90;99.90;;;;;;5074275;28;20365;-74
2021/11/06 05:59:38;;;;;;;;;;;8.90;99.90;;;;;;5074383;28;19925;-73
2021/11/06 06:02:05;;;;;;;;;;;8.90;99.90;;;;;;5074253;28;20030;-74
2021/11/06 06:04:33;;;;;;;;;;;8.90;99.90;;;;;;5077679;28;20386;-74
2021/11/06 06:07:02;;;;;;;;;;;8.90;99.90;;;;;;5077992;28;19924;-74
2021/11/06 06:09:29;;;;;;;;;;;8.90;99.90;;;;;;5077847;28;20352;-74
2021/11/06 06:11:56;;;;;;;;;;;8.90;99.90;;;;;;5077918;28;19924;-74
2021/11/06 06:14:23;;;;;;;;;;;8.90;99.90;;;;;;5077836;28;19924;-74
2021/11/06 06:16:50;;;;;;;;;;;8.80;99.90;;;;;;5077776;28;20367;-74
2021/11/06 06:19:17;;;;;;;;;;;8.80;99.90;;;;;;5077631;28;19931;-74
2021/11/06 06:21:45;;;;;;;;;;;8.80;99.90;;;;;;5077730;28;20019;-74
2021/11/06 06:24:12;;;;;;;;;;;8.90;99.90;;;;;;5077584;28;19947;-74
2021/11/06 06:26:39;;;;;;;;;;;8.80;99.90;;;;;;5077564;28;20370;-74
2021/11/06 06:29:05;;;;;;;;;;;8.80;99.90;;;;;;5077468;28;20032;-74
2021/11/06 06:31:32;;;;;;;;;;;8.90;99.90;;;;;;5077686;28;19933;-74
2021/11/06 06:33:59;;;;;;;;;;;8.80;99.90;;;;;;5077458;28;19982;-74
2021/11/06 06:36:26;;;;;;;;;;;8.80;99.90;;;;;;5077307;28;20011;-74
2021/11/06 06:38:54;;;;;;;;;;;8.90;99.90;;;;;;5077389;28;19946;-74
2021/11/06 06:41:22;;;;;;;;;;;8.80;99.90;;;;;;5077271;28;19932;-74
2021/11/06 06:43:48;;;;;;;;;;;8.90;99.90;;;;;;5077180;28;20329;-74
2021/11/06 06:46:15;;;;;;;;;;;8.90;99.90;;;;;;5077179;28;20002;-74
2021/11/06 06:48:42;;;;;;;;;;;8.90;99.90;;;;;;5077350;28;19931;-74
2021/11/06 06:51:09;;;;;;;;;;;8.90;99.90;;;;;;5076956;28;19924;-74
2021/11/06 06:53:36;;;;;;;;;;;8.90;99.90;;;;;;5077069;28;19931;-74
2021/11/06 06:56:05;;;;;;;;;;;8.90;99.90;;;;;;5077235;28;20259;-74
2021/11/06 06:58:33;;;;;;;;;;;8.90;99.90;;;;;;5077103;28;20359;-74
2021/11/06 07:00:59;;;;;;;;;;;8.90;99.90;;;;;;5077105;28;20260;-74
2021/11/06 07:03:26;;;;;;;;;;;8.90;99.90;;;;;;5076920;28;19925;-74
2021/11/06 07:05:53;;;;;;;;;;;8.90;99.90;;;;;;5076822;28;19924;-74
2021/11/06 07:08:21;;;;;;;;;;;8.90;99.90;;;;;;5076997;28;19934;-74
2021/11/06 07:10:47;;;;;;;;;;;8.90;99.90;;;;;;5077087;28;19932;-74
2021/11/06 07:13:20;;;;;;;;;;;8.80;99.90;;;;;;5077005;28;19935;-74
2021/11/06 07:15:46;;;;;;;;;;;8.90;99.90;;;;;;5075776;28;19932;-74
2021/11/06 07:18:14;;;;;;;;;;;8.90;99.90;;;;;;5076677;28;19925;-74
2021/11/06 07:20:40;;;;;;;;;;;8.90;99.90;;;;;;5076462;28;20419;-74
2021/11/06 07:23:07;;;;;;;;;;;8.80;99.90;;;;;;5076625;28;19924;-74
2021/11/06 07:25:34;;;;;;;;;;;8.80;99.90;;;;;;5076519;28;19924;-74
2021/11/06 07:28:01;;;;;;;;;;;8.80;99.90;;;;;;5076601;28;20353;-74
2021/11/06 07:30:29;;;;;;;;;;;8.70;99.90;;;;;;5076307;28;19935;-74
2021/11/06 07:32:56;;;;;;;;;;;8.80;99.90;;;;;;5076393;28;19935;-74
2021/11/06 07:35:23;;;;;;;;;;;8.70;99.90;;;;;;5076305;28;19931;-74
2021/11/06 07:37:50;;;;;;;;;;;8.70;99.90;;;;;;5076515;28;19924;-74
2021/11/06 07:40:17;;;;;;;;;;;8.70;99.90;;;;;;5076170;28;20260;-74
2021/11/06 07:42:45;;;;;;;;;;;8.70;99.90;;;;;;5075912;28;19931;-74
2021/11/06 07:45:12;;;;;;;;;;;8.60;99.90;;;;;;5076273;28;19932;-74
2021/11/06 07:47:40;;;;;;;;;;;8.60;99.90;;;;;;5076023;28;19924;-74
2021/11/06 07:50:07;;;;;;;;;;;8.60;99.90;;;;;;5075732;28;19934;-74
2021/11/06 07:52:34;;;;;;;;;;;8.50;99.90;;;;;;5075968;28;19934;-74
2021/11/06 07:55:01;;;;;;;;;;;8.60;99.90;;;;;;5075972;28;19930;-74
2021/11/06 07:57:28;;;;;;;;;;;8.50;99.90;;;;;;5076163;28;19925;-74
2021/11/06 07:59:55;;;;;;;;;;;8.50;99.90;;;;;;5075866;28;19928;-74
2021/11/06 08:02:22;;;;;;;;;;;8.50;99.90;;;;;;5075864;28;19924;-74
2021/11/06 08:04:50;;;;;;;;;;;8.50;99.90;;;;;;5075786;28;19928;-74
2021/11/06 08:07:17;;;;;;;;;;;8.50;99.90;;;;;;5075669;28;19924;-74
2021/11/06 08:09:44;;;;;;;;;;;8.60;99.90;;;;;;5075627;28;19965;-74
2021/11/06 08:12:11;;;;;;;;;;;8.60;99.90;;;;;;5075754;28;19925;-74
2021/11/06 08:14:38;;;;;;;;;;;8.60;99.90;;;;;;5075712;28;19964;-74
2021/11/06 08:17:05;;;;;;;;;;;8.60;99.90;;;;;;5075508;28;19924;-75
2021/11/06 08:19:32;;;;;;;;;;;8.70;99.90;;;;;;5075328;28;19931;-74
2021/11/06 08:22:00;;;;;;;;;;;8.70;99.90;;;;;;5075392;28;19924;-74
2021/11/06 08:24:27;;;;;;;;;;;8.70;99.90;;;;;;5076250;28;20260;-74
2021/11/06 08:26:54;;;;;;;;;;;8.80;99.90;;;;;;5075163;28;20379;-74
2021/11/06 08:29:20;;;;;;;;;;;8.80;99.90;;;;;;5076498;28;19925;-73
2021/11/06 08:31:47;;;;;;;;;;;8.80;99.90;;;;;;5075100;28;19924;-74
2021/11/06 08:34:14;;;;;;;;;;;8.90;99.90;;;;;;5075505;28;19924;-74
2021/11/06 08:36:41;;;;;;;;;;;8.90;99.90;;;;;;5075411;28;19924;-74
2021/11/06 08:39:09;;;;;;;;;;;8.90;99.90;;;;;;5075298;28;19990;-74
2021/11/06 08:41:36;;;;;;;;;;;9.00;99.90;;;;;;5075232;28;19925;-74
2021/11/06 08:44:03;;;;;;;;;;;9.00;99.90;;;;;;5075115;28;20355;-74
2021/11/06 08:46:30;;;;;;;;;;;9.00;99.90;;;;;;5075143;28;19924;-74
2021/11/06 08:48:57;;;;;;;;;;;9.00;99.90;;;;;;5075003;28;20015;-74
2021/11/06 08:51:23;;;;;;;;;;;9.00;99.90;;;;;;5074816;28;19925;-74
2021/11/06 08:53:50;;;;;;;;;;;9.00;99.90;;;;;;5075213;28;19925;-73
2021/11/06 08:56:18;;;;;;;;;;;9.10;99.90;;;;;;5075143;28;19928;-74
2021/11/06 08:58:45;;;;;;;;;;;9.10;99.90;;;;;;5074943;28;19934;-73
2021/11/06 09:01:13;;;;;;;;;;;9.20;99.90;;;;;;5074888;28;19931;-74
2021/11/06 09:03:40;;;;;;;;;;;9.20;99.90;;;;;;5074920;28;20352;-73
2021/11/06 09:06:06;;;;;;;;;;;9.20;99.90;;;;;;5074921;28;19942;-73
2021/11/06 09:08:35;;;;;;;;;;;9.20;99.90;;;;;;5074943;28;19924;-73
2021/11/06 09:11:03;;;;;;;;;;;9.30;99.90;;;;;;5074803;28;19924;-73
2021/11/06 09:13:31;;;;;;;;;;;9.30;99.90;;;;;;5074850;28;19932;-73
2021/11/06 09:15:58;;;;;;;;;;;9.40;99.90;;;;;;5074839;28;20345;-73
2021/11/06 09:18:25;;;;;;;;;;;9.40;99.90;;;;;;5075034;28;19951;-73
2021/11/06 09:20:52;;;;;;;;;;;9.50;99.90;;;;;;5074746;28;20269;-73
2021/11/06 09:23:18;;;;;;;;;;;9.50;99.90;;;;;;5074796;28;19924;-73
2021/11/06 09:25:45;;;;;;;;;;;9.50;99.90;;;;;;5074833;28;19925;-73
2021/11/06 09:28:12;;;;;;;;;;;9.60;99.90;;;;;;5074446;28;19947;-73
2021/11/06 09:30:40;;;;;;;;;;;9.70;99.90;;;;;;5074148;28;20230;-73
2021/11/06 09:33:07;;;;;;;;;;;9.70;99.90;;;;;;5073277;28;19936;-73
2021/11/06 09:35:34;;;;;;;;;;;9.70;99.90;;;;;;5074717;28;19935;-73
2021/11/06 09:38:01;;;;;;;;;;;9.70;99.90;;;;;;5076017;28;19935;-73
2021/11/06 09:40:28;;;;;;;;;;;9.80;99.90;;;;;;5078427;28;20275;-73
2021/11/06 09:42:54;;;;;;;;;;;9.80;99.90;;;;;;5078276;28;19928;-73
2021/11/06 09:45:21;;;;;;;;;;;9.80;99.90;;;;;;5078659;28;19935;-73
2021/11/06 09:47:50;;;;;;;;;;;9.90;99.90;;;;;;5078698;28;19924;-73
2021/11/06 09:50:17;;;;;;;;;;;9.80;99.90;;;;;;5078047;28;19935;-73
2021/11/06 09:52:44;;;;;;;;;;;9.90;99.90;;;;;;5078323;28;19946;-73
2021/11/06 09:55:11;;;;;;;;;;;9.90;99.90;;;;;;5078258;28;20292;-73
2021/11/06 09:57:38;;;;;;;;;;;9.90;99.90;;;;;;5078090;28;19931;-73
2021/11/06 10:00:06;;;;;;;;;;;9.90;99.90;;;;;;5078407;28;19924;-73
2021/11/06 10:02:33;;;;;;;;;;;10.00;99.90;;;;;;5078351;28;20273;-73
2021/11/06 10:05:01;;;;;;;;;;;10.00;99.90;;;;;;5078121;28;19925;-73
2021/11/06 10:07:28;;;;;;;;;;;10.10;99.90;;;;;;5078088;28;19929;-73
2021/11/06 10:09:58;;;;;;;;;;;10.10;99.90;;;;;;5077880;28;19947;-73
2021/11/06 10:12:25;;;;;;;;;;;10.10;99.90;;;;;;5077739;28;19928;-73
2021/11/06 10:15:06;;;;;;;;;;;10.20;99.90;;;;;;5077884;28;19931;-73
2021/11/06 10:17:35;;;;;;;;;;;10.20;99.90;;;;;;5074922;28;20299;-73
2021/11/06 10:20:17;;;;;;;;;;;10.20;99.90;;;;;;5077938;28;19951;-73
2021/11/06 10:22:45;;;;;;;;;;;10.20;99.90;;;;;;5077703;28;20001;-73
2021/11/06 10:25:12;;;;;;;;;;;10.30;99.90;;;;;;5077795;28;19925;-73
2021/11/06 10:27:38;;;;;;;;;;;10.30;99.90;;;;;;5077646;28;20261;-73
2021/11/06 10:30:06;;;;;;;;;;;10.30;99.90;;;;;;5077662;28;19932;-73
2021/11/06 10:32:33;;;;;;;;;;;10.30;99.90;;;;;;5077699;28;19934;-73
2021/11/06 10:35:10;;;;;;;;;;;10.20;99.90;;;;;;5077534;28;19935;-73
2021/11/06 10:37:37;;;;;;;;;;;10.20;99.90;;;;;;5077754;28;20003;-73
2021/11/06 10:40:09;;;;;;;;;;;10.20;99.90;;;;;;5077474;28;19924;-73
2021/11/06 10:42:36;;;;;;;;;;;10.30;99.90;;;;;;5077553;28;19951;-76
2021/11/06 10:45:10;;;;;;;;;;;10.30;99.90;;;;;;5080316;28;19925;-75
2021/11/06 10:47:53;;;;;;;;;;;10.30;99.90;;;;;;5077397;28;19931;-76
2021/11/06 10:50:34;;;;;;;;;;;10.40;99.90;;;;;;5077974;28;19925;-73
2021/11/06 10:53:01;;;;;;;;;;;10.40;99.90;;;;;;5077224;28;19924;-75
2021/11/06 10:55:30;;;;;;;;;;;10.50;99.90;;;;;;5077160;28;20365;-75
2021/11/06 10:57:57;;;;;;;;;;;10.50;99.90;;;;;;5076623;28;20271;-75
2021/11/06 11:00:25;;;;;;;;;;;10.60;99.90;;;;;;5076920;28;19924;-74
2021/11/06 11:02:52;;;;;;;;;;;10.60;99.90;;;;;;5077357;28;19925;-75
2021/11/06 11:05:35;;;;;;;;;;;10.60;99.90;;;;;;5076922;28;19929;-75
2021/11/06 11:08:02;;;;;;;;;;;10.70;99.90;;;;;;5077017;28;20270;-75
2021/11/06 11:10:31;;;;;;;;;;;10.70;99.90;;;;;;5076748;28;20246;-75
2021/11/06 11:13:07;;;;;;;;;;;10.70;99.90;;;;;;5077054;28;20424;-75
2021/11/06 11:15:34;;;;;;;;;;;10.70;99.90;;;;;;5077023;28;20031;-75
2021/11/06 11:18:01;;;;;;;;;;;10.70;99.90;;;;;;5076628;28;19924;-75
2021/11/06 11:20:28;;;;;;;;;;;10.70;99.90;;;;;;5076633;28;20011;-75
2021/11/06 11:23:08;;;;;;;;;;;10.70;99.90;;;;;;5076578;28;19924;-75
2021/11/06 11:25:37;;;;;;;;;;;10.80;99.90;;;;;;5076453;28;19929;-74
2021/11/06 11:28:04;;;;;;;;;;;10.80;99.90;;;;;;5075926;28;19924;-75
2021/11/06 11:30:31;;;;;;;;;;;10.80;99.90;;;;;;5076405;28;19960;-75
2021/11/06 11:32:59;;;;;;;;;;;10.90;99.90;;;;;;5076485;28;19935;-74
2021/11/06 11:35:26;;;;;;;;;;;10.90;99.90;;;;;;5076384;28;19950;-75
2021/11/06 11:37:54;;;;;;;;;;;10.90;99.90;;;;;;5076278;28;20360;-75
2021/11/06 11:40:21;;;;;;;;;;;10.90;99.90;;;;;;5076505;28;20259;-75
2021/11/06 11:42:50;;;;;;;;;;;11.00;99.90;;;;;;5076017;28;19931;-75
2021/11/06 11:45:27;;;;;;;;;;;11.10;99.90;;;;;;5076061;28;19925;-75
2021/11/06 11:47:58;;;;;;;;;;;11.10;99.90;;;;;;5076133;28;19947;-75
2021/11/06 11:50:30;;;;;;;;;;;11.20;99.90;;;;;;5075871;28;19935;-74
2021/11/06 11:52:57;;;;;;;;;;;11.30;99.90;;;;;;5076250;28;19924;-75
2021/11/06 11:55:30;;;;;;;;;;;11.30;99.90;;;;;;5075937;28;20221;-74
2021/11/06 11:58:05;;;;;;;;;;;11.40;99.90;;;;;;5075901;28;20340;-75
2021/11/06 12:00:36;;;;;;;;;;;11.40;99.90;;;;;;5075486;28;19924;-75
2021/11/06 12:03:04;;;;;;;;;;;11.40;99.90;;;;;;5075426;28;19924;-75
2021/11/06 12:05:31;;;;;;;;;;;11.40;99.90;;;;;;5075859;28;20275;-75
2021/11/06 12:08:20;;;;;;;;;;;11.50;99.90;;;;;;5075908;28;19924;-75
2021/11/06 12:10:48;;;;;;;;;;;11.50;99.90;;;;;;5075499;28;19930;-74
2021/11/06 12:13:30;;;;;;;;;;;11.60;99.90;;;;;;5075484;28;19967;-75
2021/11/06 12:15:59;;;;;;;;;;;11.70;99.90;;;;;;5075171;28;19960;-74
2021/11/06 12:18:44;;;;;;;;;;;11.70;99.90;;;;;;5075397;28;19935;-75
2021/11/06 12:21:25;;;;;;;;;;;11.70;99.90;;;;;;5062127;28;19934;-75
2021/11/06 12:23:52;;;;;;;;;;;11.70;99.90;;;;;;5075475;28;19932;-76
2021/11/06 12:26:20;;;;;;;;;;;11.70;99.90;;;;;;5075427;28;19924;-75
2021/11/06 12:28:47;;;;;;;;;;;11.70;99.90;;;;;;5075360;28;19924;-75
2021/11/06 12:31:32;;;;;;;;;;;11.80;99.90;;;;;;5075395;28;20259;-75
2021/11/06 12:34:01;;;;;;;;;;;11.80;99.90;;;;;;5075396;28;20265;-75
2021/11/06 12:36:28;;;;;;;;;;;11.80;99.90;;;;;;5075259;28;19924;-75
2021/11/06 12:38:55;;;;;;;;;;;11.80;99.90;;;;;;5075370;28;19924;-75
2021/11/06 12:41:26;;;;;;;;;;;11.80;99.90;;;;;;5075334;28;19971;-75
2021/11/06 12:43:53;;;;;;;;;;;11.80;99.90;;;;;;5075166;28;19924;-75
2021/11/06 12:46:23;;;;;;;;;;;11.80;99.90;;;;;;5075256;28;20299;-75
2021/11/06 12:48:50;;;;;;;;;;;11.90;99.90;;;;;;5075010;28;20275;-75
2021/11/06 12:51:19;;;;;;;;;;;11.90;99.90;;;;;;5074871;28;20233;-75
2021/11/06 12:53:46;;;;;;;;;;;11.80;99.90;;;;;;5075106;28;20383;-75
2021/11/06 12:56:13;;;;;;;;;;;11.80;99.90;;;;;;5075273;28;19925;-75
2021/11/06 12:58:40;;;;;;;;;;;11.80;99.90;;;;;;5075292;28;20301;-75
2021/11/06 13:01:20;;;;;;;;;;;11.80;99.90;;;;;;5075100;28;20331;-75
2021/11/06 13:03:47;;;;;;;;;;;11.80;99.90;;;;;;5074389;28;20375;-75
2021/11/06 13:06:32;;;;;;;;;;;11.80;99.90;;;;;;5074978;28;19930;-75
2021/11/06 13:09:06;;;;;;;;;;;11.80;99.90;;;;;;5074919;28;19924;-74
2021/11/06 13:11:57;;;;;;;;;;;11.70;99.90;;;;;;5074656;28;19924;-75
2021/11/06 13:14:42;;;;;;;;;;;11.60;99.90;;;;;;5058617;28;20260;-75
2021/11/06 13:17:10;;;;;;;;;;;11.50;99.90;;;;;;5079157;28;19925;-76
2021/11/06 13:19:37;;;;;;;;;;;11.40;99.90;;;;;;5079084;28;20272;-76
2021/11/06 13:22:04;;;;;;;;;;;11.30;99.90;;;;;;5078887;28;20361;-75
2021/11/06 13:24:53;;;;;;;;;;;11.20;99.90;;;;;;5078989;28;19986;-76
2021/11/06 13:27:37;;;;;;;;;;;11.10;99.90;;;;;;5072472;28;20307;-76
2021/11/06 13:30:23;;;;;;;;;;;11.00;99.90;;;;;;5079244;28;19925;-76
2021/11/06 13:32:51;;;;;;;;;;;11.00;99.90;;;;;;5078668;28;19940;-76
2021/11/06 13:35:18;;;;;;;;;;;11.00;99.90;;;;;;5079058;28;19932;-76
2021/11/06 13:37:45;;;;;;;;;;;10.90;99.90;;;;;;5078753;28;20233;-76
2021/11/06 13:40:12;;;;;;;;;;;10.90;99.90;;;;;;5078664;28;19924;-76
2021/11/06 13:42:40;;;;;;;;;;;10.90;99.90;;;;;;5078487;28;19924;-76
2021/11/06 13:45:10;;;;;;;;;;;10.90;99.90;;;;;;5078668;28;20264;-76
2021/11/06 13:47:48;;;;;;;;;;;10.80;99.90;;;;;;5078413;28;20367;-76
2021/11/06 13:50:15;;;;;;;;;;;10.80;99.90;;;;;;5078637;28;20241;-76
2021/11/06 13:52:41;;;;;;;;;;;10.80;99.90;;;;;;5077300;28;19924;-76
2021/11/06 13:55:11;;;;;;;;;;;10.90;99.90;;;;;;5078405;28;19925;-76
2021/11/06 13:57:38;;;;;;;;;;;10.90;99.90;;;;;;5078361;28;19924;-76
2021/11/06 14:00:06;;;;;;;;;;;10.80;99.90;;;;;;5078237;28;19925;-76
2021/11/06 14:02:35;;;;;;;;;;;10.80;99.90;;;;;;5078165;28;19925;-77
2021/11/06 14:05:02;;;;;;;;;;;10.80;99.90;;;;;;5078396;28;19924;-77
2021/11/06 14:07:29;;;;;;;;;;;10.80;99.90;;;;;;5078038;28;19931;-77
2021/11/06 14:09:57;;;;;;;;;;;10.80;99.90;;;;;;5078097;28;19925;-77
2021/11/06 14:12:38;;;;;;;;;;;10.80;99.90;;;;;;5078106;28;19928;-77
2021/11/06 14:15:06;;;;;;;;;;;10.80;99.90;;;;;;5078163;28;19932;-77
2021/11/06 14:17:44;;;;;;;;;;;10.80;99.90;;;;;;5078036;28;19924;-77
2021/11/06 14:20:11;;;;;;;;;;;10.70;99.90;;;;;;5078045;28;20015;-77
2021/11/06 14:22:44;;;;;;;;;;;10.80;99.90;;;;;;5078098;28;19924;-79
2021/11/06 14:25:18;;;;;;;;;;;10.80;99.90;;;;;;5078186;28;20256;-78
2021/11/06 14:27:48;;;;;;;;;;;10.80;99.90;;;;;;5078884;28;19924;-79
2021/11/06 14:30:18;;;;;;;;;;;10.80;99.90;;;;;;5078461;28;20002;-79
2021/11/06 14:32:55;;;;;;;;;;;10.80;99.90;;;;;;5078062;28;20027;-79